Weather observations for the past three days for
Palau International Airport
Imperial (Metric)
Date Time (+09) Wind (mph) Vis. (mi.) Weather Sky Cond. Temperature (ºF) Relative Humidity Wind Chill (°F) Heat Index (°F) Pressure Precipitation (in)
Air Dwpt 6 hour altimeter (in) sea level (mb) 1 hr 3 hr 6 hr
Max. Min.
01 12:50 W 16 10.00 Mostly Cloudy SCT016 BKN130 BKN320 87.8 77 70% 100 29.87 0.0
01 11:50 W 13 G 20 10.00 Mostly Cloudy SCT017 BKN130 BKN320 87.8 75.2 66% 98 29.89 0.0
01 09:50 SW 14 10.00 Mostly Cloudy BKN016 BKN130 BKN310 87.8 77 70% 100 29.9 0.0
01 07:50 SW 12 10.00 Mostly Cloudy SCT016 BKN120 BKN300 84.2 77 79% 94 29.9 0.0
01 06:50 SW 8 10.00 Overcast SCT016 BKN120 OVC300 82.4 77 84% 91 29.9 0.0
01 05:50 SW 10 12.00 Overcast SCT015 BKN110 OVC290 80.6 77 89% 87 29.89 0.0
01 04:50 SW 6 12.00 Mostly Cloudy SCT015 BKN110 BKN290 80.6 77 89% 87 29.88 0.0
01 03:50 SW 6 12.00 Mostly Cloudy SCT015 BKN110 BKN290 80.6 77 89% 87 29.87 0.0
01 02:50 SW 8 12.00 Mostly Cloudy SCT015 BKN110 BKN290 82.4 77 84% 91 0 0.0
01 01:50 SW 10 12.00 Mostly Cloudy SCT015 BKN110 BKN290 82.4 75.2 79% 89 29.88 0.0
01 00:50 SW 8 12.00 Mostly Cloudy SCT015 BKN110 BKN290 82.4 77 84% 91 29.9 0.0
31 23:50 SW 6 12.00 Mostly Cloudy SCT015 BKN110 BKN290 82.4 75.2 79% 89 29.92 0.0
31 22:50 SW 8 12.00 Mostly Cloudy SCT015 BKN110 BKN290 82.4 75.2 79% 89 29.93 0.0
31 21:50 W 7 12.00 Mostly Cloudy SCT015 SCT110 BKN290 82.4 75.2 79% 89 29.92 0.0
31 20:50 SW 9 12.00 Mostly Cloudy SCT015 SCT110 BKN290 82.4 75.2 79% 89 29.91 0.0
31 19:50 W 6 12.00 Mostly Cloudy SCT015 BKN110 BKN290 82.4 75.2 79% 89 29.9 0.0
31 18:50 SW 6 12.00 Mostly Cloudy SCT015 BKN110 BKN290 82.4 75.2 79% 89 29.88 0.0
31 17:50 SW 10 10.00 Mostly Cloudy SCT015 BKN110 BKN290 84.2 75.2 74% 92 29.86 0.0
31 16:50 SW 9 G 18 10.00 Mostly Cloudy SCT016TCU BKN120 BKN300 86 75.2 70% 95 29.85 0.0
31 15:50 SW 12 G 20 10.00 Mostly Cloudy SCT017 BKN120 BKN310 87.8 75.2 66% 98 29.84 0.0
31 14:50 W 15 G 23 10.00 Mostly Cloudy SCT017 BKN130 BKN320 87.8 75.2 66% 98 29.85 0.0
31 13:50 W 17 G 25 10.00 Mostly Cloudy BKN016 BKN130 BKN320 87.8 77 70% 100 29.87 0.0
31 12:50 SW 13 G 21 10.00 Mostly Cloudy BKN016 BKN130 BKN320 87.8 77 70% 100 29.88 0.0
31 11:50 SW 15 G 26 10.00 Mostly Cloudy SCT016 BKN130 BKN320 87.8 75.2 66% 98 29.89 0.0
31 10:50 SW 15 G 20 10.00 Mostly Cloudy BKN016 BKN130 BKN320 86 77 75% 97 29.9 0.0
31 09:50 W 10 G 18 10.00 Mostly Cloudy BKN016 BKN130 BKN310 87.8 77 70% 100 29.9 0.0
31 08:50 SW 13 G 17 10.00 Mostly Cloudy SCT017 BKN120 BKN300 86 75.2 70% 95 29.91 0.0
31 07:50 SW 9 G 15 12.00 Mostly Cloudy FEW009 SCT016 BKN120 BKN300 84.2 75.2 74% 92 29.89 0.0
31 06:50 SW 10 12.00 Mostly Cloudy FEW009 SCT016 BKN120 BKN300 82.4 75.2 79% 89 29.87 0.0
31 05:50 SW 7 13.00 Mostly Cloudy FEW015 SCT110 BKN290 80.6 75.2 84% 86 29.86 0.0
31 04:50 SW 7 13.00 Mostly Cloudy FEW015 SCT110 BKN290 80.6 75.2 84% 86 29.86 0.0
31 02:50 SW 9 13.00 Mostly Cloudy FEW015 SCT110 BKN290 80.6 75.2 84% 86 29.85 0.0
31 01:50 SW 8 13.00 Mostly Cloudy FEW015 SCT110 BKN290 80.6 75.2 84% 86 29.85 0.0
31 00:50 SW 8 13.00 Mostly Cloudy FEW015 SCT110 BKN290 80.6 75.2 84% 86 29.87 0.0
30 23:50 SW 7 13.00 Mostly Cloudy FEW015 SCT110 BKN290 80.6 75.2 84% 86 29.89 0.0
30 22:50 SW 6 12.00 Mostly Cloudy FEW015 SCT110 BKN290 80.6 75.2 84% 86 29.9 0.0
30 21:50 SW 6 12.00 Mostly Cloudy FEW015 SCT110 BKN290 80.6 75.2 84% 86 29.89 0.0
30 20:50 SW 8 12.00 Mostly Cloudy FEW015 SCT110 BKN290 80.6 73.4 79% 85 29.88 0.0
30 19:50 SW 6 12.00 Mostly Cloudy FEW015 SCT110 BKN290 82.4 73.4 74% 88 29.87 0.0
30 18:50 SW 5 12.00 Mostly Cloudy SCT015 SCT110 BKN290 82.4 73.4 74% 88 29.85 0.0
30 17:50 SW 7 12.00 Mostly Cloudy SCT015 BKN110 BKN290 84.2 77 79% 94 29.83 0.0
30 16:50 SW 10 12.00 Mostly Cloudy SCT016 BKN120 BKN300 86 77 75% 97 29.82 0.0
30 15:50 W 13 10.00 Mostly Cloudy SCT017 BKN120 BKN300 86 75.2 70% 95 29.82 0.0
30 14:50 SW 12 G 18 10.00 Mostly Cloudy SCT017 BKN130 BKN310 87.8 75.2 66% 98 29.82 0.0
30 13:50 W 15 G 21 10.00 Mostly Cloudy SCT016 BKN130 BKN320 87.8 75.2 66% 98 29.83 0.0
30 12:50 W 8 10.00 Overcast SCT016 BKN130 OVC320 86 75.2 70% 95 29.85 0.0
30 11:50 W 8 10.00 Mostly Cloudy SCT016 BKN130 BKN320 86 75.2 70% 95 29.89 0.0
30 10:50 W 15 G 20 10.00 Mostly Cloudy SCT017 BKN130 BKN310 87.8 77 70% 100 29.9 0.0
30 09:50 S 9 10.00 Overcast SCT017 BKN120 OVC300 86 77 75% 97 29.9 0.0
30 08:50 S 8 12.00 Overcast SCT017 BKN120 OVC300 86 75.2 70% 95 29.9 0.0
30 07:50 SW 8 12.00 Overcast FEW016 BKN110 OVC290 82.4 75.2 79% 89 29.9 0.0
30 06:50 SW 7 12.00 Mostly Cloudy FEW015 SCT110 BKN290 80.6 75.2 84% 86 29.89 0.0
30 05:50 SW 5 13.00 Mostly Cloudy FEW015 SCT110 BKN290 78.8 73.4 84% 82 29.89 0.0
30 04:50 SW 6 13.00 Mostly Cloudy FEW015 SCT110 BKN290 77 73.4 89% 78 29.89 0.0
30 03:50 SW 5 13.00 Mostly Cloudy FEW015 SCT110 BKN290 77 73.4 89% 78 29.89 0.0
30 01:50 SW 5 13.00 Mostly Cloudy FEW015 SCT110 BKN290 78.8 73.4 84% 82 29.9 0.0
30 00:50 SW 6 13.00 Mostly Cloudy FEW015 SCT110 BKN290 80.6 73.4 79% 85 29.91 0.0
29 23:50 SW 7 13.00 Mostly Cloudy FEW015 SCT110 BKN290 80.6 75.2 84% 86 29.92 0.0
29 22:50 SW 7 13.00 Mostly Cloudy FEW015 SCT110 BKN290 80.6 75.2 84% 86 29.93 0.0
29 21:50 SW 6 13.00 Mostly Cloudy SCT015 SCT110 BKN290 80.6 75.2 84% 86 29.93 0.0
29 20:50 SW 9 12.00 Mostly Cloudy SCT015 SCT110 BKN290 82.4 75.2 79% 89 29.92 0.0
29 19:50 SW 8 12.00 Mostly Cloudy SCT015 BKN110 BKN290 82.4 73.4 74% 88 29.9 0.0
29 18:50 W 10 12.00 Mostly Cloudy SCT015TCU BKN110 BKN290 82.4 73.4 74% 88 29.89 0.0
29 17:50 W 8 12.00 Mostly Cloudy SCT016 BKN120 BKN300 84.2 75.2 74% 92 29.86 0.0
29 16:50 SW 13 12.00 Mostly Cloudy SCT016 BKN120 BKN300 84.2 73.4 70% 91 29.84 0.0
29 15:50 W 12 11.00 Mostly Cloudy SCT017 BKN130 BKN310 86 75.2 70% 95 29.84 0.0
29 14:50 W 12 G 18 11.00 Mostly Cloudy SCT017 BKN130 BKN310 87.8 75.2 66% 98 29.83 0.0
29 13:50 SW 12 11.00 Mostly Cloudy SCT017 BKN130 BKN310 86 77 75% 97 29.85 0.0
Date Time (+09) Wind (mph) Vis. (mi.) Weather Sky Cond. Air Dwpt Max. Min. Relative Humidity Wind Chill (°F) Heat Index (°F) altimeter (in) sea level (mb) 1 hr 3 hr 6 hr
6 hour
Temperature (ºF) Pressure Precipitation (in)